createdAt,value
2019-04-16T00:00:33.626Z,17.90
2019-04-16T00:03:06.043Z,17.90
2019-04-16T00:05:43.845Z,17.90
2019-04-16T00:08:27.809Z,17.90
2019-04-16T00:11:08.753Z,17.90
2019-04-16T00:14:07.956Z,17.90
2019-04-16T00:16:41.333Z,17.90
2019-04-16T00:19:14.888Z,17.90
2019-04-16T00:21:59.873Z,17.90
2019-04-16T00:24:34.721Z,17.90
2019-04-16T00:27:05.806Z,17.90
2019-04-16T00:29:39.777Z,17.90
2019-04-16T00:32:42.496Z,17.90
2019-04-16T00:35:15.648Z,17.80
2019-04-16T00:37:51.352Z,17.80
2019-04-16T00:40:26.374Z,17.80
2019-04-16T00:42:56.097Z,17.80
2019-04-16T00:45:29.059Z,17.80
2019-04-16T00:48:01.339Z,17.80
2019-04-16T00:50:33.926Z,17.80
2019-04-16T00:53:08.349Z,17.80
2019-04-16T00:55:38.712Z,17.80
2019-04-16T00:58:10.832Z,17.80
2019-04-16T01:00:45.908Z,17.80
2019-04-16T01:03:17.931Z,17.70
2019-04-16T01:05:50.798Z,17.70
2019-04-16T01:08:22.855Z,17.70
2019-04-16T01:10:54.889Z,17.70
2019-04-16T01:13:27.102Z,17.70
2019-04-16T01:16:02.473Z,17.70
2019-04-16T01:23:36.692Z,17.80
2019-04-16T01:26:08.281Z,17.70
2019-04-16T01:28:46.753Z,17.70
2019-04-16T01:31:36.256Z,17.70
2019-04-16T01:34:27.336Z,17.70
2019-04-16T01:37:08.389Z,17.70
2019-04-16T01:39:41.109Z,17.70
2019-04-16T01:42:13.886Z,17.60
2019-04-16T01:44:46.046Z,17.60
2019-04-16T01:47:19.103Z,17.60
2019-04-16T01:49:51.665Z,17.60
2019-04-16T01:57:28.388Z,17.70
2019-04-16T02:00:06.754Z,17.60
2019-04-16T02:07:39.879Z,17.70
2019-04-16T02:10:11.904Z,17.60
2019-04-16T02:12:44.883Z,17.60
2019-04-16T02:15:21.622Z,17.50
2019-04-16T02:17:50.849Z,17.50
2019-04-16T02:20:23.328Z,17.50
2019-04-16T02:22:55.881Z,17.50
2019-04-16T02:25:28.340Z,17.50
2019-04-16T02:28:00.834Z,17.50
2019-04-16T02:30:37.573Z,17.50
2019-04-16T02:33:07.910Z,17.50
2019-04-16T02:35:39.927Z,17.50
2019-04-16T02:38:13.664Z,17.50
2019-04-16T02:40:51.676Z,17.50
2019-04-16T02:43:19.303Z,17.40
2019-04-16T02:45:56.458Z,17.40
2019-04-16T02:48:26.056Z,17.50
2019-04-16T02:51:07.355Z,17.50
2019-04-16T02:53:41.340Z,17.50
2019-04-16T02:56:31.821Z,17.50
2019-04-16T02:59:12.210Z,17.40
2019-04-16T03:01:52.810Z,17.40
2019-04-16T03:04:28.111Z,17.40
2019-04-16T03:07:03.309Z,17.40
2019-04-16T03:09:39.816Z,17.40
2019-04-16T03:12:09.058Z,17.40
2019-04-16T03:14:41.846Z,17.40
2019-04-16T03:17:44.685Z,17.40
2019-04-16T03:20:17.325Z,17.40
2019-04-16T03:22:49.893Z,17.40
2019-04-16T03:25:21.983Z,17.30
2019-04-16T03:27:55.051Z,17.30
2019-04-16T03:30:27.888Z,17.30
2019-04-16T03:33:00.053Z,17.30
2019-04-16T03:35:32.328Z,17.30
2019-04-16T03:38:06.220Z,17.30
2019-04-16T03:40:38.850Z,17.30
2019-04-16T03:43:11.098Z,17.30
2019-04-16T03:45:43.598Z,17.30
2019-04-16T03:48:15.844Z,17.30
2019-04-16T03:50:48.328Z,17.30
2019-04-16T03:53:20.912Z,17.30
2019-04-16T03:55:57.910Z,17.30
2019-04-16T03:58:26.863Z,17.30
2019-04-16T04:00:59.881Z,17.30
2019-04-16T04:03:31.945Z,17.30
2019-04-16T04:06:06.902Z,17.30
2019-04-16T04:08:37.895Z,17.20
2019-04-16T04:11:10.800Z,17.20
2019-04-16T04:13:43.905Z,17.20
2019-04-16T04:16:16.414Z,17.20
2019-04-16T04:18:48.901Z,17.20
2019-04-16T04:21:22.498Z,17.10
2019-04-16T04:23:57.543Z,17.10
2019-04-16T04:26:28.886Z,17.10
2019-04-16T04:29:01.104Z,17.10
2019-04-16T04:31:33.914Z,17.10
2019-04-16T04:34:09.362Z,17.10
2019-04-16T04:36:39.857Z,17.10
2019-04-16T04:39:15.655Z,17.10
2019-04-16T04:41:47.323Z,17.10
2019-04-16T04:44:20.447Z,17.10
2019-04-16T04:46:52.835Z,17.10
2019-04-16T04:49:30.111Z,17.10
2019-04-16T04:51:58.858Z,17.10
2019-04-16T04:54:31.362Z,17.10
2019-04-16T04:57:03.880Z,17.10
2019-04-16T04:59:37.406Z,17.10
2019-04-16T05:02:10.883Z,17.10
2019-04-16T05:05:07.949Z,17.10
2019-04-16T05:07:40.667Z,17.10
2019-04-16T05:10:12.902Z,17.10
2019-04-16T05:12:44.891Z,17.10
2019-04-16T05:15:17.112Z,17.10
2019-04-16T05:17:49.798Z,17.20
2019-04-16T05:20:21.847Z,17.20
2019-04-16T05:22:54.548Z,17.20
2019-04-16T05:25:26.875Z,17.20
2019-04-16T05:27:59.063Z,17.20
2019-04-16T05:30:31.520Z,17.20
2019-04-16T05:33:05.527Z,17.30
2019-04-16T05:35:38.614Z,17.30
2019-04-16T05:38:11.274Z,17.30
2019-04-16T05:40:43.852Z,17.30
2019-04-16T05:43:16.180Z,17.40
2019-04-16T05:45:48.847Z,17.40
2019-04-16T05:48:21.644Z,17.50
2019-04-16T05:50:59.703Z,17.50
2019-04-16T05:53:28.758Z,17.50
2019-04-16T05:56:20.298Z,17.50
2019-04-16T05:58:52.874Z,17.60
2019-04-16T06:01:34.862Z,17.60
2019-04-16T06:04:06.827Z,17.60
2019-04-16T06:06:38.992Z,17.70
2019-04-16T06:09:13.249Z,17.70
2019-04-16T06:11:45.853Z,17.70
2019-04-16T06:14:46.501Z,17.70
2019-04-16T06:17:38.516Z,17.70
2019-04-16T06:20:36.800Z,17.70
2019-04-16T06:23:31.743Z,17.70
2019-04-16T06:26:22.019Z,17.70
2019-04-16T06:29:04.823Z,17.70
2019-04-16T06:31:40.112Z,17.70
2019-04-16T06:34:32.059Z,17.80
2019-04-16T06:37:38.483Z,17.80
2019-04-16T06:40:31.663Z,17.80
2019-04-16T06:43:10.915Z,17.90
2019-04-16T06:45:54.093Z,17.90
2019-04-16T06:48:32.324Z,17.90
2019-04-16T06:51:43.534Z,17.90
2019-04-16T06:54:32.869Z,17.90
2019-04-16T06:57:22.023Z,18.00
2019-04-16T07:00:06.988Z,18.00
2019-04-16T07:03:01.879Z,18.00
2019-04-16T07:05:40.458Z,18.00
2019-04-16T07:08:41.623Z,18.00
2019-04-16T07:11:12.397Z,18.00
2019-04-16T07:13:44.864Z,18.10
2019-04-16T07:16:16.891Z,18.10
2019-04-16T07:18:49.062Z,18.10
2019-04-16T07:21:21.330Z,18.10
2019-04-16T07:23:58.164Z,18.20
2019-04-16T07:26:27.870Z,18.20
2019-04-16T07:29:08.829Z,18.10
2019-04-16T07:31:46.889Z,18.10
2019-04-16T07:34:38.281Z,18.10
2019-04-16T07:37:38.601Z,18.10
2019-04-16T07:40:28.336Z,18.10
2019-04-16T07:43:18.913Z,18.10
2019-04-16T07:46:00.040Z,18.10
2019-04-16T07:48:44.481Z,18.10
2019-04-16T07:51:41.588Z,18.20
2019-04-16T07:54:31.818Z,18.20
2019-04-16T07:57:03.931Z,18.20
2019-04-16T07:59:37.018Z,18.30
2019-04-16T08:02:09.328Z,18.30
2019-04-16T08:05:31.903Z,18.30
2019-04-16T08:08:03.909Z,18.30
2019-04-16T08:10:36.388Z,18.40
2019-04-16T08:13:14.336Z,18.30
2019-04-16T08:15:47.359Z,18.40
2019-04-16T08:18:19.860Z,18.40
2019-04-16T08:21:01.195Z,18.40
2019-04-16T08:23:44.858Z,18.50
2019-04-16T08:26:17.439Z,18.50
2019-04-16T08:28:53.437Z,18.50
2019-04-16T08:31:28.751Z,18.50
2019-04-16T08:34:00.861Z,18.50
2019-04-16T08:36:33.003Z,18.50
2019-04-16T08:39:07.246Z,18.50
2019-04-16T08:41:39.878Z,18.50
2019-04-16T08:44:12.045Z,18.60
2019-04-16T08:46:44.848Z,18.60
2019-04-16T08:49:22.046Z,18.60
2019-04-16T08:52:01.611Z,18.60
2019-04-16T08:54:34.913Z,18.60
2019-04-16T08:57:07.332Z,18.60
2019-04-16T08:59:42.606Z,18.60
2019-04-16T09:02:14.314Z,18.60
2019-04-16T09:04:47.036Z,18.60
2019-04-16T09:07:37.336Z,18.60
2019-04-16T09:10:23.745Z,18.60
2019-04-16T09:13:11.216Z,18.70
2019-04-16T09:15:44.015Z,18.70
2019-04-16T09:18:36.845Z,18.70
2019-04-16T09:21:10.279Z,18.70
2019-04-16T09:23:45.521Z,18.70
2019-04-16T09:26:35.362Z,18.70
2019-04-16T09:29:27.108Z,18.70
2019-04-16T09:32:28.125Z,18.70
2019-04-16T09:35:28.571Z,18.70
2019-04-16T09:38:20.423Z,18.70
2019-04-16T09:41:29.390Z,18.80
2019-04-16T09:44:03.426Z,18.80
2019-04-16T09:46:52.177Z,18.80
2019-04-16T09:49:08.691Z,18.80
2019-04-16T09:51:39.738Z,18.80
2019-04-16T09:54:13.590Z,18.70
2019-04-16T10:02:10.118Z,18.90
2019-04-16T10:04:43.094Z,18.80
2019-04-16T10:07:15.458Z,18.80
2019-04-16T10:09:47.914Z,18.80
2019-04-16T10:12:20.323Z,18.70
2019-04-16T10:14:53.856Z,18.70
2019-04-16T10:17:27.131Z,18.80
2019-04-16T10:19:59.916Z,18.80
2019-04-16T10:22:32.944Z,18.80
2019-04-16T10:25:13.345Z,18.80
2019-04-16T10:28:01.994Z,18.80
2019-04-16T10:30:38.701Z,18.80
2019-04-16T10:33:15.584Z,18.70
2019-04-16T10:35:47.969Z,18.80
2019-04-16T10:38:36.893Z,18.80
2019-04-16T10:41:33.592Z,18.80
2019-04-16T10:44:24.933Z,18.80
2019-04-16T10:47:35.834Z,18.80
2019-04-16T10:50:27.037Z,18.80
2019-04-16T10:53:17.068Z,18.80
2019-04-16T10:56:22.510Z,18.80
2019-04-16T10:59:22.319Z,18.80
2019-04-16T11:02:12.547Z,18.80
2019-04-16T11:05:02.099Z,18.80
2019-04-16T11:07:32.925Z,18.80
2019-04-16T11:10:05.846Z,18.80
2019-04-16T11:12:37.768Z,18.90
2019-04-16T11:15:10.475Z,18.90
2019-04-16T11:17:42.770Z,18.90
2019-04-16T11:20:14.606Z,18.90
2019-04-16T11:27:48.672Z,19.10
2019-04-16T11:30:31.626Z,19.00
2019-04-16T11:33:03.191Z,19.00
2019-04-16T11:35:34.903Z,19.10
2019-04-16T11:38:06.926Z,19.00
2019-04-16T11:40:41.036Z,19.00
2019-04-16T11:43:12.585Z,19.10
2019-04-16T11:45:45.106Z,19.10
2019-04-16T11:48:17.452Z,19.10
2019-04-16T11:50:50.337Z,19.10
2019-04-16T11:53:23.014Z,19.10
2019-04-16T11:55:54.916Z,19.10
2019-04-16T11:58:38.341Z,19.10
2019-04-16T12:01:25.653Z,19.10
2019-04-16T12:04:03.778Z,19.20
2019-04-16T12:06:55.277Z,19.10
2019-04-16T12:13:09.397Z,19.20
2019-04-16T12:15:59.488Z,19.10
2019-04-16T12:18:47.385Z,19.20
2019-04-16T12:21:37.580Z,19.10
2019-04-16T12:24:27.102Z,19.10
2019-04-16T12:27:08.779Z,19.10
2019-04-16T12:29:48.880Z,19.20
2019-04-16T12:32:48.688Z,19.10
2019-04-16T12:35:34.811Z,19.20
2019-04-16T12:41:02.608Z,19.10
2019-04-16T12:43:39.782Z,19.20
2019-04-16T12:46:28.455Z,19.20
2019-04-16T12:49:18.367Z,19.20
2019-04-16T12:51:53.766Z,19.20
2019-04-16T12:54:59.853Z,19.20
2019-04-16T12:57:48.043Z,19.20
2019-04-16T13:00:38.802Z,19.20
2019-04-16T13:03:23.970Z,19.20
2019-04-16T13:06:20.500Z,19.30
2019-04-16T13:09:12.819Z,19.20
2019-04-16T13:11:50.774Z,19.20
2019-04-16T13:15:00.505Z,19.30
2019-04-16T13:17:39.577Z,19.30
2019-04-16T13:20:30.137Z,19.30
2019-04-16T13:23:05.297Z,19.20
2019-04-16T13:25:44.762Z,19.20
2019-04-16T13:28:15.787Z,19.30
2019-04-16T13:30:47.750Z,19.20
2019-04-16T13:33:18.597Z,19.30
2019-04-16T13:35:50.571Z,19.30
2019-04-16T13:38:23.866Z,19.30
2019-04-16T13:40:56.303Z,19.30
2019-04-16T13:43:33.798Z,19.30
2019-04-16T13:46:07.117Z,19.30
2019-04-16T13:48:48.370Z,19.30
2019-04-16T13:51:22.781Z,19.30
2019-04-16T13:54:02.018Z,19.30
2019-04-16T13:56:50.157Z,19.30
2019-04-16T13:59:30.145Z,19.40
2019-04-16T14:02:18.656Z,19.30
2019-04-16T14:04:50.484Z,19.40
2019-04-16T14:07:25.439Z,19.50
2019-04-16T14:09:56.858Z,19.80
2019-04-16T14:12:41.900Z,20.00
2019-04-16T14:15:05.691Z,20.20
2019-04-16T14:17:51.385Z,20.30
2019-04-16T14:20:12.640Z,20.50
2019-04-16T14:22:45.085Z,20.60
2019-04-16T14:25:17.840Z,20.70
2019-04-16T14:27:50.406Z,20.80
2019-04-16T14:30:26.766Z,20.90
2019-04-16T14:32:58.306Z,21.00
2019-04-16T14:35:34.056Z,21.00
2019-04-16T14:38:06.922Z,21.00
2019-04-16T14:40:42.317Z,21.00
2019-04-16T14:43:16.519Z,21.00
2019-04-16T14:45:58.238Z,21.00
2019-04-16T14:48:26.350Z,21.00
2019-04-16T14:50:58.926Z,20.90
2019-04-16T14:53:51.902Z,20.90
2019-04-16T14:56:45.614Z,20.90
2019-04-16T14:59:33.580Z,20.90
2019-04-16T15:02:14.712Z,20.80
2019-04-16T15:05:05.107Z,20.80
2019-04-16T15:07:48.425Z,20.70
2019-04-16T15:10:30.896Z,20.70
2019-04-16T15:13:14.033Z,20.60
2019-04-16T15:16:21.387Z,20.60
2019-04-16T15:19:09.469Z,20.50
2019-04-16T15:22:18.705Z,20.50
2019-04-16T15:24:56.077Z,20.40
2019-04-16T15:27:39.816Z,20.30
2019-04-16T15:30:21.024Z,20.30
2019-04-16T15:33:18.352Z,20.20
2019-04-16T15:36:03.633Z,20.10
2019-04-16T15:38:54.490Z,20.10
2019-04-16T15:42:01.318Z,20.10
2019-04-16T15:44:42.888Z,20.10
2019-04-16T15:47:33.497Z,20.10
2019-04-16T15:50:15.123Z,20.10
2019-04-16T15:52:51.633Z,20.10
2019-04-16T15:55:48.999Z,20.10
2019-04-16T15:58:38.628Z,20.10
2019-04-16T16:01:28.443Z,20.10
2019-04-16T16:04:25.606Z,20.10
2019-04-16T16:09:58.448Z,20.00
2019-04-16T16:12:33.409Z,20.00
2019-04-16T16:15:08.714Z,20.00
2019-04-16T16:17:40.794Z,20.00
2019-04-16T16:20:13.067Z,20.10
2019-04-16T16:22:45.326Z,20.20
2019-04-16T16:25:17.984Z,20.30
2019-04-16T16:27:50.323Z,20.40
2019-04-16T16:30:22.830Z,20.50
2019-04-16T16:32:54.887Z,20.60
2019-04-16T16:35:26.899Z,20.60
2019-04-16T16:37:59.528Z,20.60
2019-04-16T16:40:31.867Z,20.70
2019-04-16T16:43:06.788Z,20.70
2019-04-16T16:46:03.134Z,20.60
2019-04-16T16:48:35.923Z,20.60
2019-04-16T16:51:07.954Z,20.60
2019-04-16T16:54:00.858Z,20.60
2019-04-16T16:56:43.024Z,20.60
2019-04-16T16:59:25.871Z,20.50
2019-04-16T17:02:17.278Z,20.50
2019-04-16T17:04:51.893Z,20.40
2019-04-16T17:07:23.873Z,20.40
2019-04-16T17:09:56.835Z,20.30
2019-04-16T17:12:29.436Z,20.30
2019-04-16T17:15:01.871Z,20.20
2019-04-16T17:17:34.349Z,20.20
2019-04-16T17:20:06.821Z,20.10
2019-04-16T17:22:40.947Z,20.10
2019-04-16T17:25:13.963Z,20.20
2019-04-16T17:27:51.698Z,20.20
2019-04-16T17:30:18.931Z,20.20
2019-04-16T17:32:51.801Z,20.20
2019-04-16T17:35:23.911Z,20.20
2019-04-16T17:38:01.845Z,20.20
2019-04-16T17:40:58.735Z,20.10
2019-04-16T17:44:03.097Z,20.10
2019-04-16T17:46:49.922Z,20.10
2019-04-16T17:50:02.544Z,20.10
2019-04-16T17:52:49.605Z,20.20
2019-04-16T17:55:49.109Z,20.20
2019-04-16T17:58:36.412Z,20.40
2019-04-16T18:01:23.736Z,20.50
2019-04-16T18:04:01.552Z,20.60
2019-04-16T18:06:52.850Z,20.60
2019-04-16T18:09:32.914Z,20.70
2019-04-16T18:12:24.775Z,20.70
2019-04-16T18:15:09.748Z,20.70
2019-04-16T18:18:16.929Z,20.60
2019-04-16T18:21:14.674Z,20.60
2019-04-16T18:24:05.889Z,20.60
2019-04-16T18:27:08.104Z,20.50
2019-04-16T18:29:48.926Z,20.50
2019-04-16T18:32:27.647Z,20.40
2019-04-16T18:35:18.680Z,20.40
2019-04-16T18:37:54.901Z,20.30
2019-04-16T18:40:41.898Z,20.20
2019-04-16T18:43:33.872Z,20.20
2019-04-16T18:46:27.000Z,20.10
2019-04-16T18:49:08.783Z,20.10
2019-04-16T18:51:40.127Z,20.10
2019-04-16T18:54:15.034Z,20.10
2019-04-16T18:56:48.920Z,20.10
2019-04-16T18:59:22.750Z,20.10
2019-04-16T19:02:04.261Z,20.10
2019-04-16T19:04:38.066Z,20.00
2019-04-16T19:07:10.757Z,20.00
2019-04-16T19:09:42.306Z,19.90
2019-04-16T19:12:16.209Z,19.90
2019-04-16T19:14:48.890Z,19.90
2019-04-16T19:17:23.508Z,19.80
2019-04-16T19:19:56.333Z,19.80
2019-04-16T19:22:29.864Z,19.70
2019-04-16T19:25:02.118Z,19.70
2019-04-16T19:27:34.847Z,19.70
2019-04-16T19:30:07.538Z,19.60
2019-04-16T19:32:40.423Z,19.60
2019-04-16T19:35:17.584Z,19.60
2019-04-16T19:37:47.294Z,19.60
2019-04-16T19:40:19.899Z,19.50
2019-04-16T19:42:51.906Z,19.50
2019-04-16T19:45:24.102Z,19.50
2019-04-16T19:48:00.299Z,19.50
2019-04-16T19:50:36.187Z,19.40
2019-04-16T19:53:04.338Z,19.40
2019-04-16T19:55:37.478Z,19.40
2019-04-16T19:58:09.807Z,19.30
2019-04-16T20:00:42.014Z,19.30
2019-04-16T20:03:14.379Z,19.30
2019-04-16T20:05:46.977Z,19.30
2019-04-16T20:08:19.665Z,19.30
2019-04-16T20:10:52.117Z,19.30
2019-04-16T20:13:25.408Z,19.20
2019-04-16T20:15:59.976Z,19.20
2019-04-16T20:18:32.833Z,19.20
2019-04-16T20:21:05.573Z,19.20
2019-04-16T20:23:37.329Z,19.20
2019-04-16T20:26:10.308Z,19.20
2019-04-16T20:28:45.391Z,19.10
2019-04-16T20:31:18.910Z,19.10
2019-04-16T20:33:51.004Z,19.10
2019-04-16T20:36:23.591Z,19.10
2019-04-16T20:38:55.841Z,19.10
2019-04-16T20:41:28.089Z,19.00
2019-04-16T20:44:03.315Z,19.00
2019-04-16T20:46:36.605Z,19.00
2019-04-16T20:49:10.710Z,19.00
2019-04-16T20:51:43.320Z,19.00
2019-04-16T20:54:16.070Z,18.90
2019-04-16T20:56:50.014Z,18.90
2019-04-16T20:59:22.910Z,18.90
2019-04-16T21:01:55.345Z,19.00
2019-04-16T21:04:27.848Z,18.90
2019-04-16T21:06:59.888Z,18.90
2019-04-16T21:09:32.104Z,18.90
2019-04-16T21:12:04.878Z,18.90
2019-04-16T21:14:36.919Z,18.90
2019-04-16T21:17:09.380Z,18.80
2019-04-16T21:19:48.906Z,18.80
2019-04-16T21:22:21.383Z,18.80
2019-04-16T21:24:53.857Z,18.80
2019-04-16T21:27:25.890Z,18.80
2019-04-16T21:29:58.360Z,18.80
2019-04-16T21:33:01.782Z,18.80
2019-04-16T21:35:37.973Z,18.80
2019-04-16T21:38:28.664Z,18.80
2019-04-16T21:41:01.085Z,18.80
2019-04-16T21:43:35.809Z,18.70
2019-04-16T21:46:07.702Z,18.80
2019-04-16T21:48:38.728Z,18.70
2019-04-16T21:51:10.861Z,18.70
2019-04-16T21:53:43.388Z,18.70
2019-04-16T21:56:15.920Z,18.70
2019-04-16T21:58:50.158Z,18.70
2019-04-16T22:01:32.725Z,18.70
2019-04-16T22:04:18.443Z,18.70
2019-04-16T22:06:52.449Z,18.70
2019-04-16T22:09:24.841Z,18.60
2019-04-16T22:11:56.955Z,18.60
2019-04-16T22:14:32.087Z,18.60
2019-04-16T22:17:05.113Z,18.60
2019-04-16T22:19:53.021Z,18.60
2019-04-16T22:22:14.774Z,18.70
2019-04-16T22:24:47.098Z,18.60
2019-04-16T22:27:19.879Z,18.60
2019-04-16T22:29:52.419Z,18.60
2019-04-16T22:32:27.056Z,18.60
2019-04-16T22:34:59.010Z,18.60
2019-04-16T22:37:31.413Z,18.50
2019-04-16T22:40:22.820Z,18.50
2019-04-16T22:43:13.497Z,18.60
2019-04-16T22:46:00.232Z,18.50
2019-04-16T22:48:32.873Z,18.50
2019-04-16T22:51:09.672Z,18.50
2019-04-16T22:53:39.387Z,18.40
2019-04-16T22:56:12.123Z,18.50
2019-04-16T22:58:48.800Z,18.50
2019-04-16T23:01:22.898Z,18.50
2019-04-16T23:03:55.083Z,18.50
2019-04-16T23:06:27.904Z,18.40
2019-04-16T23:09:00.106Z,18.50
2019-04-16T23:11:32.364Z,18.50
2019-04-16T23:14:05.765Z,18.40
2019-04-16T23:16:41.873Z,18.40
2019-04-16T23:19:11.368Z,18.40
2019-04-16T23:21:44.014Z,18.40
2019-04-16T23:24:16.289Z,18.40
2019-04-16T23:26:48.853Z,18.40
2019-04-16T23:29:20.973Z,18.40
2019-04-16T23:31:56.117Z,18.40
2019-04-16T23:34:25.971Z,18.40
2019-04-16T23:36:58.689Z,18.40
2019-04-16T23:39:33.547Z,18.30
2019-04-16T23:42:07.104Z,18.30
2019-04-16T23:44:49.813Z,18.30
2019-04-16T23:47:46.707Z,18.30
2019-04-16T23:50:45.161Z,18.30
2019-04-16T23:53:19.106Z,18.30
2019-04-16T23:56:17.845Z,18.30
2019-04-16T23:59:13.283Z,18.30
